createdAt,value
2022-08-22T03:12:48.112Z,18.38
2022-08-22T03:16:11.704Z,18.38
2022-08-22T03:19:21.244Z,17.74
2022-08-22T03:22:34.755Z,17.76
2022-08-22T03:25:45.367Z,17.80
2022-08-22T03:29:03.005Z,17.92
2022-08-22T03:32:07.758Z,17.95
2022-08-22T03:35:12.008Z,18.02
2022-08-22T03:38:23.894Z,18.14
2022-08-22T03:41:49.970Z,18.22
2022-08-22T03:45:22.388Z,18.34
2022-08-22T03:48:57.190Z,18.41
2022-08-22T03:53:04.030Z,18.48
2022-08-22T03:56:28.292Z,18.47
2022-08-22T04:00:21.442Z,18.43
2022-08-22T04:03:54.364Z,18.46
2022-08-22T04:07:13.859Z,18.38
2022-08-22T04:10:38.386Z,18.33
2022-08-22T04:14:03.400Z,18.30
2022-08-22T04:17:20.997Z,18.30
2022-08-22T04:20:44.721Z,18.36
2022-08-22T04:24:02.287Z,18.43
2022-08-22T04:27:14.930Z,18.43
2022-08-22T04:30:43.355Z,18.44
2022-08-22T04:33:45.615Z,18.68
2022-08-22T04:37:14.557Z,18.86
2022-08-22T04:40:23.645Z,19.01
2022-08-22T04:43:46.224Z,19.43
2022-08-22T04:46:57.354Z,19.57
2022-08-22T04:50:21.978Z,19.61
2022-08-22T04:53:42.693Z,19.54
2022-08-22T04:57:08.768Z,19.58
2022-08-22T05:00:13.549Z,19.55
2022-08-22T05:03:18.411Z,19.56
2022-08-22T05:06:26.427Z,19.57
2022-08-22T05:09:32.535Z,19.70
2022-08-22T05:12:41.161Z,19.73
2022-08-22T05:15:48.478Z,19.91
2022-08-22T05:19:00.480Z,20.27
2022-08-22T05:22:04.924Z,20.33
2022-08-22T05:25:15.522Z,20.83
2022-08-22T05:28:34.539Z,21.02
2022-08-22T05:31:48.458Z,21.04
2022-08-22T05:34:54.374Z,21.03
2022-08-22T05:37:57.047Z,21.42
2022-08-22T05:41:05.798Z,21.49
2022-08-22T05:44:19.369Z,21.52
2022-08-22T05:47:26.869Z,21.45
2022-08-22T05:51:03.666Z,21.67
2022-08-22T05:54:13.602Z,21.84
2022-08-22T05:57:22.736Z,22.10
2022-08-22T06:00:32.450Z,22.20
2022-08-22T06:03:54.093Z,22.37
2022-08-22T06:07:32.565Z,22.37
2022-08-22T06:10:48.198Z,22.43
2022-08-22T06:14:02.567Z,22.66
2022-08-22T06:17:14.779Z,22.84
2022-08-22T06:20:23.686Z,22.93
2022-08-22T06:23:38.359Z,23.05
2022-08-22T06:26:48.577Z,22.90
2022-08-22T06:29:57.992Z,23.05
2022-08-22T06:33:06.406Z,23.20
2022-08-22T06:36:31.628Z,23.37
2022-08-22T06:39:36.693Z,23.51
2022-08-22T06:42:44.026Z,23.44
2022-08-22T06:45:47.000Z,23.55
2022-08-22T06:48:49.827Z,23.58
2022-08-22T06:51:53.803Z,23.65
2022-08-22T06:55:06.455Z,23.78
2022-08-22T06:58:24.465Z,24.22
2022-08-22T07:02:16.436Z,23.85
2022-08-22T07:05:23.016Z,23.87
2022-08-22T07:08:27.172Z,24.15
2022-08-22T07:11:41.560Z,25.03
2022-08-22T07:14:59.043Z,25.76
2022-08-22T07:18:05.125Z,25.17
2022-08-22T07:21:09.299Z,24.72
2022-08-22T07:24:17.720Z,24.38
2022-08-22T07:27:48.863Z,24.22
2022-08-22T07:30:56.661Z,24.52
2022-08-22T07:34:19.921Z,24.81
2022-08-22T07:37:40.839Z,24.87
2022-08-22T07:40:56.710Z,24.71
2022-08-22T07:44:18.982Z,24.53
2022-08-22T07:47:26.326Z,24.27
2022-08-22T07:50:34.337Z,24.38
2022-08-22T07:53:48.718Z,24.16
2022-08-22T07:57:01.556Z,23.85
2022-08-22T08:00:11.295Z,23.49
2022-08-22T08:03:14.305Z,23.13
2022-08-22T08:06:17.173Z,23.10
2022-08-22T08:09:20.216Z,23.21
2022-08-22T08:12:35.085Z,23.31
2022-08-22T08:15:39.622Z,22.99
2022-08-22T08:18:44.734Z,22.64
2022-08-22T08:21:51.067Z,22.43
2022-08-22T08:24:57.198Z,22.27
2022-08-22T08:28:18.447Z,22.02
2022-08-22T08:31:36.002Z,22.14
2022-08-22T08:34:40.038Z,22.30
2022-08-22T08:37:48.719Z,22.62
2022-08-22T08:41:28.737Z,23.06
2022-08-22T08:44:59.110Z,22.92
2022-08-22T08:48:03.800Z,23.06
2022-08-22T08:51:32.736Z,22.94
2022-08-22T08:55:20.046Z,22.97
2022-08-22T08:58:37.977Z,23.60
2022-08-22T09:01:43.324Z,24.31
2022-08-22T09:05:12.483Z,24.75
2022-08-22T09:08:42.520Z,24.78
2022-08-22T09:12:10.752Z,24.52
2022-08-22T09:15:42.876Z,25.66
2022-08-22T09:19:09.498Z,25.73
2022-08-22T09:22:17.555Z,25.52
2022-08-22T09:25:27.205Z,25.64
2022-08-22T09:28:53.502Z,26.26
2022-08-22T09:32:13.081Z,26.98
2022-08-22T09:35:45.149Z,27.54
2022-08-22T09:38:59.835Z,27.19
2022-08-22T09:42:11.116Z,26.95
2022-08-22T09:45:38.234Z,27.07
2022-08-22T09:48:54.520Z,27.05
2022-08-22T09:52:15.572Z,25.92
2022-08-22T09:56:15.638Z,25.23
2022-08-22T09:59:29.074Z,24.72
2022-08-22T10:02:50.481Z,24.73
2022-08-22T10:06:02.165Z,24.54
2022-08-22T10:09:16.386Z,24.18
2022-08-22T10:12:31.475Z,24.19
2022-08-22T10:15:40.103Z,24.61
2022-08-22T10:19:16.976Z,24.85
2022-08-22T10:22:41.002Z,24.97
2022-08-22T10:25:53.319Z,25.32
2022-08-22T10:29:05.547Z,25.22
2022-08-22T10:32:28.197Z,25.51
2022-08-22T10:35:37.321Z,25.79
2022-08-22T10:38:47.633Z,25.83
2022-08-22T10:42:03.021Z,25.65
2022-08-22T10:45:14.724Z,26.05
2022-08-22T10:48:25.751Z,26.93
2022-08-22T10:51:37.344Z,27.68
2022-08-22T10:54:48.723Z,27.42
2022-08-22T10:58:13.169Z,28.10
2022-08-22T11:01:37.585Z,29.53
2022-08-22T11:05:11.382Z,30.38
2022-08-22T11:08:35.040Z,30.53
2022-08-22T11:11:43.524Z,29.79
2022-08-22T11:14:51.657Z,29.18
2022-08-22T11:18:20.334Z,29.34
2022-08-22T11:21:43.249Z,28.80
2022-08-22T11:25:35.764Z,27.85
2022-08-22T11:29:13.417Z,27.71
2022-08-22T11:32:27.964Z,27.42
2022-08-22T11:35:44.897Z,27.78
2022-08-22T11:39:07.933Z,28.31
2022-08-22T11:42:32.298Z,28.55
2022-08-22T11:45:43.924Z,28.84
2022-08-22T11:49:09.193Z,28.65
2022-08-22T11:52:51.804Z,29.02
2022-08-22T11:56:12.009Z,29.01
2022-08-22T11:59:54.130Z,28.80
2022-08-22T12:03:16.367Z,28.69
2022-08-22T12:06:38.260Z,28.96
2022-08-22T12:09:58.590Z,29.38
2022-08-22T12:13:35.011Z,28.61
2022-08-22T12:16:47.309Z,28.18
2022-08-22T12:20:16.916Z,28.21
2022-08-22T12:23:30.391Z,27.06
2022-08-22T12:27:08.865Z,27.69
2022-08-22T12:30:23.220Z,27.44
2022-08-22T12:33:46.037Z,27.57
2022-08-22T12:36:53.148Z,27.61
2022-08-22T12:40:21.147Z,26.87
2022-08-22T12:43:56.926Z,26.64
2022-08-22T12:47:11.300Z,26.69
2022-08-22T12:50:28.893Z,26.62
2022-08-22T12:54:01.135Z,26.35
2022-08-22T12:57:32.376Z,26.11
2022-08-22T13:00:40.226Z,25.65
2022-08-22T13:03:48.811Z,25.37
2022-08-22T13:07:01.238Z,25.09
2022-08-22T13:10:14.616Z,25.20
2022-08-22T13:13:38.857Z,25.37
2022-08-22T13:16:49.129Z,25.56
2022-08-22T13:20:07.607Z,25.43
2022-08-22T13:23:25.513Z,25.42
2022-08-22T13:26:33.707Z,25.59
2022-08-22T13:29:52.744Z,26.19
2022-08-22T13:33:08.560Z,26.11
2022-08-22T13:36:15.912Z,25.79
2022-08-22T13:39:26.961Z,25.93
2022-08-22T13:42:32.303Z,26.36
2022-08-22T13:45:36.565Z,26.00
2022-08-22T13:48:49.841Z,25.70
2022-08-22T13:52:05.945Z,25.69
2022-08-22T13:55:31.237Z,25.51
2022-08-22T13:58:56.546Z,24.95
2022-08-22T14:02:24.379Z,24.96
2022-08-22T14:05:41.966Z,24.94
2022-08-22T14:08:45.932Z,24.99
2022-08-22T14:11:53.853Z,25.20
2022-08-22T14:14:59.797Z,25.05
2022-08-22T14:18:30.463Z,24.87
2022-08-22T14:21:45.565Z,24.81
2022-08-22T14:24:55.627Z,25.05
2022-08-22T14:28:09.053Z,24.93
2022-08-22T14:31:14.240Z,24.99
2022-08-22T14:34:17.065Z,24.85
2022-08-22T14:37:30.145Z,24.49
2022-08-22T14:40:36.259Z,23.98
2022-08-22T14:44:02.026Z,23.83
2022-08-22T14:47:54.208Z,23.82
2022-08-22T14:50:55.316Z,23.46
2022-08-22T14:54:21.020Z,23.19
2022-08-22T14:57:24.286Z,23.17
2022-08-22T15:00:33.701Z,23.54
2022-08-22T15:03:38.773Z,23.60
2022-08-22T15:06:51.250Z,23.86
2022-08-22T15:10:01.223Z,24.01
2022-08-22T15:13:10.366Z,24.23
2022-08-22T15:16:20.137Z,24.14
2022-08-22T15:19:27.513Z,23.94
2022-08-22T15:22:30.202Z,23.37
